Time;durP1;ratioP1;P1;durP2;ratioP2;P2;SDS_P1;SDS_P2;PMS_P1;PMS_P2;Temp;Humidity;BMP_temperature;BMP_pressure;BME280_temperature;BME280_humidity;BME280_pressure;Samples;Min_cycle;Max_cycle;Signal;HPM_P1;HPM_P2
2022/07/27 00:00:40;;;;;;;;;;;;;;;25.39;46.15;99421.44;5073836;28;19917;-66
2022/07/27 00:03:06;;;;;;;;;;;;;;;25.39;46.37;99415.16;5074231;28;19923;-67
2022/07/27 00:05:31;;;;;;;;;;;;;;;25.37;46.13;99420.13;5074029;28;20275;-67
2022/07/27 00:07:56;;;;;;;;;;;;;;;25.38;46.16;99417.09;5074084;28;20066;-67
2022/07/27 00:10:22;;;;;;;;;;;;;;;25.39;46.22;99418.72;5074044;28;20294;-67
2022/07/27 00:12:47;;;;;;;;;;;;;;;25.39;46.07;99423.34;5073870;28;19962;-67
2022/07/27 00:15:12;;;;;;;;;;;;;;;25.40;46.00;99419.53;5073648;28;19999;-67
2022/07/27 00:17:37;;;;;;;;;;;;;;;25.39;46.12;99428.81;5089964;28;19916;-67
2022/07/27 00:20:03;;;;;;;;;;;;;;;25.38;45.94;99430.75;5093324;28;19916;-67
2022/07/27 00:22:28;;;;;;;;;;;;;;;25.36;46.13;99434.94;5093701;28;19924;-66
2022/07/27 00:24:53;;;;;;;;;;;;;;;25.40;45.79;99435.94;5093793;28;19928;-67
2022/07/27 00:27:19;;;;;;;;;;;;;;;25.38;45.96;99432.69;5093967;28;20274;-67
2022/07/27 00:29:44;;;;;;;;;;;;;;;25.38;45.90;99435.44;5093723;28;20125;-67
2022/07/27 00:32:10;;;;;;;;;;;;;;;25.38;46.02;99427.22;5093853;28;19916;-67
2022/07/27 00:34:35;;;;;;;;;;;;;;;25.39;45.92;99428.81;5094680;28;19916;-67
2022/07/27 00:37:00;;;;;;;;;;;;;;;25.39;45.88;99421.44;5093883;28;20358;-68
2022/07/27 00:39:26;;;;;;;;;;;;;;;25.38;46.18;99429.97;5093808;28;19916;-67
2022/07/27 00:41:51;;;;;;;;;;;;;;;25.37;46.10;99422.88;5093498;28;19928;-67
2022/07/27 00:44:29;;;;;;;;;;;;;;;25.38;45.78;99419.81;5093501;28;19940;-67
2022/07/27 00:46:54;;;;;;;;;;;;;;;25.38;45.88;99416.28;5093778;28;19916;-67
2022/07/27 00:49:20;;;;;;;;;;;;;;;25.37;45.65;99420.13;5093832;28;19922;-67
2022/07/27 00:51:45;;;;;;;;;;;;;;;25.38;45.94;99421.75;5093649;28;20050;-67
2022/07/27 00:54:10;;;;;;;;;;;;;;;25.37;46.03;99415.50;5093804;28;20266;-67
2022/07/27 00:56:35;;;;;;;;;;;;;;;25.40;45.84;99419.53;5093643;28;19969;-67
2022/07/27 00:59:01;;;;;;;;;;;;;;;25.38;45.97;99410.81;5093425;28;19916;-67
2022/07/27 01:01:26;;;;;;;;;;;;;;;25.37;45.91;99411.94;5092161;28;20023;-67
2022/07/27 01:03:51;;;;;;;;;;;;;;;25.38;45.82;99408.09;5093771;28;19916;-66
2022/07/27 01:06:17;;;;;;;;;;;;;;;25.35;45.90;99406.75;5093370;28;20358;-65
2022/07/27 01:08:42;;;;;;;;;;;;;;;25.36;45.86;99413.06;5094711;28;19916;-65
2022/07/27 01:11:07;;;;;;;;;;;;;;;25.37;45.59;99407.28;5095015;28;20081;-65
2022/07/27 01:13:32;;;;;;;;;;;;;;;25.29;45.90;99414.28;5094888;28;20388;-65
2022/07/27 01:15:58;;;;;;;;;;;;;;;25.38;45.64;99419.03;5092505;28;19916;-66
2022/07/27 01:18:29;;;;;;;;;;;;;;;25.39;45.46;99426.09;5073940;28;19974;-67
2022/07/27 01:20:55;;;;;;;;;;;;;;;25.37;45.46;99422.88;5073447;28;19931;-67
2022/07/27 01:23:21;;;;;;;;;;;;;;;25.37;45.66;99425.59;5073083;28;19936;-67
2022/07/27 01:25:46;;;;;;;;;;;;;;;25.37;45.51;99425.59;5073009;28;20005;-67
2022/07/27 01:28:11;;;;;;;;;;;;;;;25.38;45.48;99419.81;5072908;28;20317;-67
2022/07/27 01:30:37;;;;;;;;;;;;;;;25.35;45.70;99422.38;5073159;28;20010;-67
2022/07/27 01:33:02;;;;;;;;;;;;;;;25.38;45.61;99419.03;5076909;28;19916;-67
2022/07/27 01:35:28;;;;;;;;;;;;;;;25.36;45.75;99424.81;5076980;28;19917;-67
2022/07/27 01:37:53;;;;;;;;;;;;;;;25.33;45.88;99424.63;5076579;28;19960;-67
2022/07/27 01:40:19;;;;;;;;;;;;;;;25.35;45.69;99414.97;5076591;28;19921;-67
2022/07/27 01:42:44;;;;;;;;;;;;;;;25.35;45.63;99428.63;5076779;28;20019;-67
2022/07/27 01:45:09;;;;;;;;;;;;;;;25.35;45.72;99416.91;5076761;28;19920;-67
2022/07/27 01:47:34;;;;;;;;;;;;;;;25.38;45.42;99424.50;5076944;28;20231;-67
2022/07/27 01:50:00;;;;;;;;;;;;;;;25.36;45.82;99418.53;5076687;28;20275;-67
2022/07/27 01:52:25;;;;;;;;;;;;;;;25.37;45.58;99420.13;5077245;28;19916;-67
2022/07/27 01:54:50;;;;;;;;;;;;;;;25.37;45.52;99426.44;5076280;28;20374;-67
2022/07/27 01:57:16;;;;;;;;;;;;;;;25.36;45.69;99424.00;5076760;28;19917;-67
2022/07/27 01:59:41;;;;;;;;;;;;;;;25.37;45.69;99425.59;5076587;28;20263;-67
2022/07/27 02:02:06;;;;;;;;;;;;;;;25.37;45.69;99425.59;5076238;28;19921;-67
2022/07/27 02:04:31;;;;;;;;;;;;;;;25.37;45.46;99422.88;5076243;28;19956;-67
2022/07/27 02:06:57;;;;;;;;;;;;;;;25.38;45.83;99416.28;5076255;28;19966;-67
2022/07/27 02:09:24;;;;;;;;;;;;;;;25.35;45.75;99412.22;5076093;28;19959;-67
2022/07/27 02:14:33;;;;;;;;;;;;;;;25.36;45.66;99407.59;5076248;28;19927;-67
2022/07/27 02:16:59;;;;;;;;;;;;;;;25.35;45.77;99405.97;5085226;28;19916;-67
2022/07/27 02:19:24;;;;;;;;;;;;;;;25.36;45.70;99408.38;5096026;28;19966;-67
2022/07/27 02:21:49;;;;;;;;;;;;;;;25.34;45.77;99410.63;5096187;28;19923;-67
2022/07/27 02:24:15;;;;;;;;;;;;;;;25.35;45.64;99408.69;5096077;28;20347;-67
2022/07/27 02:26:40;;;;;;;;;;;;;;;25.34;45.80;99409.84;5096190;28;19917;-67
2022/07/27 02:29:05;;;;;;;;;;;;;;;25.35;45.87;99405.97;5096172;28;20254;-67
2022/07/27 02:31:30;;;;;;;;;;;;;;;25.34;45.56;99405.16;5095797;28;20274;-67
2022/07/27 02:33:56;;;;;;;;;;;;;;;25.33;45.46;99406.28;5095788;28;19962;-67
2022/07/27 02:36:21;;;;;;;;;;;;;;;25.35;45.74;99408.69;5095945;28;20029;-67
2022/07/27 02:38:47;;;;;;;;;;;;;;;25.36;45.80;99407.59;5095671;28;19920;-67
2022/07/27 02:41:12;;;;;;;;;;;;;;;25.35;45.63;99403.22;5096447;28;19916;-67
2022/07/27 02:43:37;;;;;;;;;;;;;;;25.33;45.53;99400.00;5095239;28;20417;-67
2022/07/27 02:46:02;;;;;;;;;;;;;;;25.34;45.66;99404.38;5095530;28;19982;-67
2022/07/27 02:48:28;;;;;;;;;;;;;;;25.36;45.38;99397.44;5095570;28;19917;-67
2022/07/27 02:50:53;;;;;;;;;;;;;;;25.37;45.54;99404.56;5095364;28;19923;-67
2022/07/27 02:53:18;;;;;;;;;;;;;;;25.34;45.79;99405.16;5095740;28;19916;-67
2022/07/27 02:55:43;;;;;;;;;;;;;;;25.33;45.80;99397.28;5095627;28;19916;-67
2022/07/27 02:58:09;;;;;;;;;;;;;;;25.34;45.74;99399.69;5095948;28;20404;-67
2022/07/27 03:00:34;;;;;;;;;;;;;;;25.37;45.66;99398.25;5095245;28;19920;-68
2022/07/27 03:02:59;;;;;;;;;;;;;;;25.36;45.54;99402.13;5095497;28;19916;-67
2022/07/27 03:05:24;;;;;;;;;;;;;;;25.38;45.65;99397.16;5095470;28;19916;-67
2022/07/27 03:07:50;;;;;;;;;;;;;;;25.34;45.42;99396.16;5095435;28;19939;-67
2022/07/27 03:10:15;;;;;;;;;;;;;;;25.35;45.51;99395.03;5095190;28;19916;-66
2022/07/27 03:12:42;;;;;;;;;;;;;;;25.34;45.66;99402.44;5095242;28;19916;-67
2022/07/27 03:15:07;;;;;;;;;;;;;;;25.36;45.63;99399.38;5095276;28;20289;-67
2022/07/27 03:17:33;;;;;;;;;;;;;;;25.34;45.56;99393.44;5081951;28;20007;-68
2022/07/27 03:19:58;;;;;;;;;;;;;;;25.34;45.57;99396.16;5074912;28;20000;-68
2022/07/27 03:22:23;;;;;;;;;;;;;;;25.33;45.68;99398.06;5075024;28;19916;-68
2022/07/27 03:24:49;;;;;;;;;;;;;;;25.36;45.63;99399.38;5074585;28;19978;-68
2022/07/27 03:27:14;;;;;;;;;;;;;;;25.35;45.63;99390.34;5074835;28;20327;-68
2022/07/27 03:29:40;;;;;;;;;;;;;;;25.36;45.69;99391.19;5074699;28;19942;-68
2022/07/27 03:32:05;;;;;;;;;;;;;;;25.36;45.66;99397.44;5074367;28;19917;-68
2022/07/27 03:34:30;;;;;;;;;;;;;;;25.24;46.20;99397.97;5074663;28;19966;-67
2022/07/27 03:36:56;;;;;;;;;;;;;;;25.34;45.70;99401.63;5074544;28;20350;-67
2022/07/27 03:39:21;;;;;;;;;;;;;;;25.35;45.91;99397.75;5074471;28;19970;-67
2022/07/27 03:41:46;;;;;;;;;;;;;;;25.33;46.06;99400.00;5074418;28;20058;-67
2022/07/27 03:44:11;;;;;;;;;;;;;;;25.34;46.10;99405.16;5074449;28;19917;-67
2022/07/27 03:46:37;;;;;;;;;;;;;;;25.34;46.13;99398.91;5074076;28;20400;-67
2022/07/27 03:49:03;;;;;;;;;;;;;;;25.36;46.06;99402.13;5074295;28;19917;-67
2022/07/27 03:51:28;;;;;;;;;;;;;;;25.34;45.90;99410.63;5074237;28;19916;-67
2022/07/27 03:53:54;;;;;;;;;;;;;;;25.29;46.30;99408.81;5073676;28;20011;-67
2022/07/27 03:56:19;;;;;;;;;;;;;;;25.28;46.01;99401.75;5073243;28;20019;-67
2022/07/27 03:58:45;;;;;;;;;;;;;;;25.34;46.19;99409.84;5073900;28;19916;-67
2022/07/27 04:01:10;;;;;;;;;;;;;;;25.30;46.29;99415.09;5074125;28;19924;-67
2022/07/27 04:03:35;;;;;;;;;;;;;;;25.33;46.20;99411.75;5073868;28;20418;-67
2022/07/27 04:06:00;;;;;;;;;;;;;;;25.36;45.92;99413.06;5074056;28;19931;-68
2022/07/27 04:08:26;;;;;;;;;;;;;;;25.37;45.69;99415.50;5074005;28;20359;-68
2022/07/27 04:10:51;;;;;;;;;;;;;;;25.37;45.90;99409.19;5073556;28;19920;-68
2022/07/27 04:13:17;;;;;;;;;;;;;;;25.36;46.06;99413.06;5073941;28;19920;-68
2022/07/27 04:15:42;;;;;;;;;;;;;;;25.37;45.76;99412.75;5073725;28;20344;-68
2022/07/27 04:18:07;;;;;;;;;;;;;;;25.39;45.80;99417.88;5091018;28;19916;-68
2022/07/27 04:20:32;;;;;;;;;;;;;;;25.39;46.11;99415.97;5094159;28;20431;-67
2022/07/27 04:22:58;;;;;;;;;;;;;;;25.38;46.04;99419.03;5094033;28;20011;-68
2022/07/27 04:25:23;;;;;;;;;;;;;;;25.28;46.33;99412.69;5093846;28;19959;-68
2022/07/27 04:27:49;;;;;;;;;;;;;;;25.34;46.26;99415.31;5094062;28;19916;-68
2022/07/27 04:30:14;;;;;;;;;;;;;;;25.34;46.29;99404.38;5093830;28;19938;-67
2022/07/27 04:32:39;;;;;;;;;;;;;;;25.35;46.11;99411.44;5093810;28;19916;-67
2022/07/27 04:35:05;;;;;;;;;;;;;;;25.36;46.10;99408.38;5093948;28;20397;-68
2022/07/27 04:37:31;;;;;;;;;;;;;;;25.33;46.42;99413.69;5094531;28;19943;-67
2022/07/27 04:39:56;;;;;;;;;;;;;;;25.25;46.29;99407.84;5094026;28;19923;-68
2022/07/27 04:42:22;;;;;;;;;;;;;;;25.32;46.30;99412.03;5094654;28;19916;-68
2022/07/27 04:44:47;;;;;;;;;;;;;;;25.29;46.00;99419.75;5093791;28;20365;-67
2022/07/27 04:47:12;;;;;;;;;;;;;;;25.33;46.05;99414.47;5094171;28;20041;-67
2022/07/27 04:49:37;;;;;;;;;;;;;;;25.30;46.00;99415.91;5093840;28;19939;-67
2022/07/27 04:52:03;;;;;;;;;;;;;;;25.29;46.20;99410.75;5093597;28;19916;-67
2022/07/27 04:54:28;;;;;;;;;;;;;;;25.25;46.29;99417.91;5093469;28;19969;-67
2022/07/27 04:56:53;;;;;;;;;;;;;;;25.29;46.28;99417.03;5093482;28;19969;-68
2022/07/27 04:59:18;;;;;;;;;;;;;;;25.27;46.04;99416.53;5093723;28;19916;-68
2022/07/27 05:01:44;;;;;;;;;;;;;;;25.29;45.90;99411.56;5093812;28;19943;-68
2022/07/27 05:04:09;;;;;;;;;;;;;;;25.34;46.00;99421.56;5093319;28;19916;-68
2022/07/27 05:06:34;;;;;;;;;;;;;;;25.34;45.90;99421.56;5096200;28;20015;-68
2022/07/27 05:09:00;;;;;;;;;;;;;;;25.35;45.66;99422.38;5097365;28;20281;-68
2022/07/27 05:11:25;;;;;;;;;;;;;;;25.31;45.74;99413.97;5097308;28;19917;-68
2022/07/27 05:13:50;;;;;;;;;;;;;;;25.34;45.74;99416.09;5097715;28;19916;-67
2022/07/27 05:16:16;;;;;;;;;;;;;;;25.33;45.59;99419.94;5096927;28;20011;-67
2022/07/27 05:18:41;;;;;;;;;;;;;;;25.36;45.64;99415.78;5076961;28;19924;-67
2022/07/27 05:21:07;;;;;;;;;;;;;;;25.36;45.37;99415.78;5076976;28;20075;-68
2022/07/27 05:23:32;;;;;;;;;;;;;;;25.39;45.28;99417.88;5076747;28;19969;-68
2022/07/27 05:25:58;;;;;;;;;;;;;;;25.39;45.01;99434.28;5076821;28;19949;-67
2022/07/27 05:28:23;;;;;;;;;;;;;;;25.39;45.16;99421.44;5075854;28;20258;-67
2022/07/27 05:30:48;;;;;;;;;;;;;;;25.40;45.26;99428.53;5076949;28;20019;-69
2022/07/27 05:33:13;;;;;;;;;;;;;;;25.35;45.19;99422.38;5076775;28;20350;-68
2022/07/27 05:35:39;;;;;;;;;;;;;;;25.34;45.11;99423.50;5076588;28;19920;-68
2022/07/27 05:38:04;;;;;;;;;;;;;;;25.30;44.90;99418.66;5076578;28;19939;-67
2022/07/27 05:40:29;;;;;;;;;;;;;;;25.34;44.95;99426.25;5076975;28;19916;-67
2022/07/27 05:42:54;;;;;;;;;;;;;;;25.25;45.34;99424.25;5076718;28;20384;-67
2022/07/27 05:45:20;;;;;;;;;;;;;;;25.32;45.33;99422.97;5076879;28;19916;-67
2022/07/27 05:47:45;;;;;;;;;;;;;;;25.30;44.79;99426.03;5076228;28;19952;-67
2022/07/27 05:50:10;;;;;;;;;;;;;;;25.30;45.27;99424.13;5076364;28;19920;-68
2022/07/27 05:52:36;;;;;;;;;;;;;;;25.30;45.07;99424.13;5076274;28;19985;-68
2022/07/27 05:55:01;;;;;;;;;;;;;;;25.30;45.04;99426.84;5076523;28;19917;-68
2022/07/27 05:57:26;;;;;;;;;;;;;;;25.34;45.02;99415.31;5076589;28;19923;-68
2022/07/27 05:59:53;;;;;;;;;;;;;;;25.32;44.98;99417.50;5076146;28;19974;-68
2022/07/27 06:02:19;;;;;;;;;;;;;;;25.35;44.83;99414.16;5076417;28;19917;-68
2022/07/27 06:04:44;;;;;;;;;;;;;;;25.34;44.75;99418.03;5074990;28;20388;-67
2022/07/27 06:09:53;;;;;;;;;;;;;;;25.24;44.74;99417.13;5076374;28;19923;-67
2022/07/27 06:12:19;;;;;;;;;;;;;;;25.29;44.39;99419.75;5076206;28;20007;-67
2022/07/27 06:14:44;;;;;;;;;;;;;;;25.27;44.23;99429.41;5076301;28;20015;-67
2022/07/27 06:17:10;;;;;;;;;;;;;;;25.38;44.00;99427.22;5082656;28;19916;-67
2022/07/27 06:19:38;;;;;;;;;;;;;;;25.38;43.84;99430.75;5096418;28;19970;-67
2022/07/27 06:22:03;;;;;;;;;;;;;;;25.40;43.53;99435.94;5096470;28;19947;-68
2022/07/27 06:24:29;;;;;;;;;;;;;;;25.41;43.43;99432.88;5095941;28;19987;-66
2022/07/27 06:26:54;;;;;;;;;;;;;;;25.37;43.40;99428.34;5096368;28;19920;-67
2022/07/27 06:29:19;;;;;;;;;;;;;;;25.41;43.37;99437.56;5095778;28;20384;-67
2022/07/27 06:31:45;;;;;;;;;;;;;;;25.41;43.10;99445.75;5095832;28;19920;-67
2022/07/27 06:34:10;;;;;;;;;;;;;;;25.41;43.17;99445.75;5096441;28;19920;-67
2022/07/27 06:36:38;;;;;;;;;;;;;;;25.41;42.90;99443.03;5096749;28;20237;-67
2022/07/27 06:39:03;;;;;;;;;;;;;;;25.38;42.64;99449.09;5095747;28;19917;-68
2022/07/27 06:41:29;;;;;;;;;;;;;;;25.28;42.87;99450.97;5096057;28;19920;-68
2022/07/27 06:43:54;;;;;;;;;;;;;;;25.33;41.80;99451.97;5095984;28;20341;-68
2022/07/27 06:46:19;;;;;;;;;;;;;;;25.36;42.38;99456.81;5096435;28;19968;-67
2022/07/27 06:48:45;;;;;;;;;;;;;;;25.29;42.48;99455.31;5095453;28;19923;-67
2022/07/27 06:51:10;;;;;;;;;;;;;;;25.39;42.17;99464.38;5096283;28;19923;-66
2022/07/27 06:53:35;;;;;;;;;;;;;;;25.40;41.05;99457.81;5095439;28;19916;-67
2022/07/27 06:56:02;;;;;;;;;;;;;;;25.40;41.27;99464.06;5097572;28;20002;-66
2022/07/27 06:58:31;;;;;;;;;;;;;;;25.43;41.12;99462.66;5098058;28;19927;-68
2022/07/27 07:00:58;;;;;;;;;;;;;;;25.43;40.32;99468.13;5099185;28;19984;-67
2022/07/27 07:03:23;;;;;;;;;;;;;;;25.42;39.67;99480.19;5097453;28;19916;-67
2022/07/27 07:05:48;;;;;;;;;;;;;;;25.43;39.98;99476.34;5097001;28;19943;-67
2022/07/27 07:08:14;;;;;;;;;;;;;;;25.38;39.49;99477.25;5096134;28;19916;-67
2022/07/27 07:10:40;;;;;;;;;;;;;;;25.42;40.33;99474.72;5095256;28;19948;-67
2022/07/27 07:13:05;;;;;;;;;;;;;;;25.40;39.57;99475.03;5095109;28;19923;-68
2022/07/27 07:15:30;;;;;;;;;;;;;;;25.36;40.17;99470.50;5095075;28;19923;-68
2022/07/27 07:17:56;;;;;;;;;;;;;;;25.41;39.55;99475.84;5082485;28;19916;-68
2022/07/27 07:20:21;;;;;;;;;;;;;;;25.40;39.91;99474.22;5074625;28;20350;-67
2022/07/27 07:22:46;;;;;;;;;;;;;;;25.38;39.63;99481.94;5074664;28;20077;-67
2022/07/27 07:25:12;;;;;;;;;;;;;;;25.33;39.15;99476.56;5074713;28;20018;-67
2022/07/27 07:27:37;;;;;;;;;;;;;;;25.30;38.80;99484.28;5074966;28;19951;-68
2022/07/27 07:30:03;;;;;;;;;;;;;;;25.35;38.39;99482.53;5074407;28;19971;-67
2022/07/27 07:32:29;;;;;;;;;;;;;;;25.37;39.29;99485.75;5074718;28;19917;-67
2022/07/27 07:34:56;;;;;;;;;;;;;;;25.41;39.03;99492.25;5074136;28;20145;-68
2022/07/27 07:37:21;;;;;;;;;;;;;;;25.40;39.02;99494.16;5074689;28;19916;-68
2022/07/27 07:39:46;;;;;;;;;;;;;;;25.41;39.30;99492.25;5074687;28;19916;-68
2022/07/27 07:42:12;;;;;;;;;;;;;;;25.40;38.31;99494.16;5075103;28;19976;-67
2022/07/27 07:44:37;;;;;;;;;;;;;;;25.40;39.03;99501.56;5075545;28;19921;-68
2022/07/27 07:47:02;;;;;;;;;;;;;;;25.36;39.17;99498.63;5074687;28;19969;-67
2022/07/27 07:49:27;;;;;;;;;;;;;;;25.41;38.89;99500.47;5074419;28;20343;-67
2022/07/27 07:51:53;;;;;;;;;;;;;;;25.39;39.02;99500.75;5074719;28;19917;-67
2022/07/27 07:54:18;;;;;;;;;;;;;;;25.43;38.92;99506.44;5074499;28;19927;-68
2022/07/27 07:56:43;;;;;;;;;;;;;;;25.40;39.35;99507.84;5073944;28;19939;-67
2022/07/27 07:59:08;;;;;;;;;;;;;;;25.39;39.16;99510.88;5074231;28;20005;-67
2022/07/27 08:01:34;;;;;;;;;;;;;;;25.39;39.49;99516.34;5074274;28;19916;-67
2022/07/27 08:03:59;;;;;;;;;;;;;;;25.42;39.20;99510.25;5074351;28;20234;-67
2022/07/27 08:06:24;;;;;;;;;;;;;;;25.40;38.78;99518.78;5074017;28;19931;-66
2022/07/27 08:08:50;;;;;;;;;;;;;;;25.34;39.47;99513.75;5072725;28;19974;-67
2022/07/27 08:11:15;;;;;;;;;;;;;;;25.41;38.87;99516.88;5072462;28;19916;-66
2022/07/27 08:13:40;;;;;;;;;;;;;;;25.40;39.09;99512.50;5074261;28;20258;-66
2022/07/27 08:16:05;;;;;;;;;;;;;;;25.43;38.56;99523.63;5072513;28;19916;-66
2022/07/27 08:18:31;;;;;;;;;;;;;;;25.42;38.73;99524.78;5090009;28;20011;-67
2022/07/27 08:20:56;;;;;;;;;;;;;;;25.44;38.88;99527.16;5094037;28;19916;-66
2022/07/27 08:23:21;;;;;;;;;;;;;;;25.40;38.30;99528.91;5094566;28;20029;-66
2022/07/27 08:25:46;;;;;;;;;;;;;;;25.41;38.77;99541.47;5096556;28;20350;-67
2022/07/27 08:28:12;;;;;;;;;;;;;;;25.43;38.45;99533.78;5093664;28;19920;-67
2022/07/27 08:30:37;;;;;;;;;;;;;;;25.41;38.20;99531.34;5094056;28;20438;-67
2022/07/27 08:33:02;;;;;;;;;;;;;;;25.43;38.08;99534.56;5094208;28;19916;-67
2022/07/27 08:35:28;;;;;;;;;;;;;;;25.39;38.77;99533.59;5093714;28;19955;-67
2022/07/27 08:37:53;;;;;;;;;;;;;;;25.44;38.19;99540.84;5094195;28;20007;-66
2022/07/27 08:40:19;;;;;;;;;;;;;;;25.40;38.11;99540.66;5093183;28;20385;-66
2022/07/27 08:42:44;;;;;;;;;;;;;;;25.32;38.27;99532.38;5093445;28;19916;-67
2022/07/27 08:45:10;;;;;;;;;;;;;;;25.38;37.71;99540.16;5095234;28;19916;-66
2022/07/27 08:47:35;;;;;;;;;;;;;;;25.39;38.23;99549.16;5093659;28;19917;-67
2022/07/27 08:50:01;;;;;;;;;;;;;;;25.38;37.73;99551.09;5094712;28;20365;-67
2022/07/27 08:52:27;;;;;;;;;;;;;;;25.41;37.63;99544.22;5094320;28;19919;-66
2022/07/27 08:54:52;;;;;;;;;;;;;;;25.42;37.29;99554.84;5092332;28;19939;-67
2022/07/27 08:57:17;;;;;;;;;;;;;;;25.38;38.26;99553.03;5093428;28;19920;-67
2022/07/27 08:59:42;;;;;;;;;;;;;;;25.40;37.52;99551.59;5093506;28;19916;-67
2022/07/27 09:02:08;;;;;;;;;;;;;;;25.43;37.67;99566.59;5093614;28;19923;-66
2022/07/27 09:04:34;;;;;;;;;;;;;;;25.41;37.99;99555.16;5093600;28;20285;-66
2022/07/27 09:06:59;;;;;;;;;;;;;;;25.36;37.44;99566.22;5092459;28;19916;-66
2022/07/27 09:09:25;;;;;;;;;;;;;;;25.37;37.09;99568.66;5092921;28;19962;-66
2022/07/27 09:12:04;;;;;;;;;;;;;;;25.40;36.85;99572.69;5093369;28;19922;-66
2022/07/27 09:14:29;;;;;;;;;;;;;;;25.38;37.35;99569.44;5093546;28;19916;-67
2022/07/27 09:16:55;;;;;;;;;;;;;;;25.25;37.61;99571.03;5090973;28;19916;-67
2022/07/27 09:19:20;;;;;;;;;;;;;;;25.34;37.38;99573.91;5073172;28;20003;-67
2022/07/27 09:21:45;;;;;;;;;;;;;;;25.37;36.80;99576.84;5073810;28;19964;-68
2022/07/27 09:24:13;;;;;;;;;;;;;;;25.35;36.38;99575.53;5072958;28;19928;-67
2022/07/27 09:26:39;;;;;;;;;;;;;;;25.36;36.42;99575.22;5073153;28;20062;-67
2022/07/27 09:29:08;;;;;;;;;;;;;;;25.38;37.23;99580.38;5073700;28;19917;-67
2022/07/27 09:31:40;;;;;;;;;;;;;;;25.40;37.03;99578.94;5073196;28;20023;-67
2022/07/27 09:34:06;;;;;;;;;;;;;;;25.37;36.80;99574.13;5073480;28;19916;-67
2022/07/27 09:36:31;;;;;;;;;;;;;;;25.38;37.56;99574.91;5073482;28;19917;-67
2022/07/27 09:39:01;;;;;;;;;;;;;;;25.38;37.46;99566.72;5071883;28;20391;-67
2022/07/27 09:41:37;;;;;;;;;;;;;;;25.32;37.73;99565.19;5073713;28;19916;-67
2022/07/27 09:44:02;;;;;;;;;;;;;;;25.38;37.65;99569.44;5073873;28;19916;-67
2022/07/27 09:46:31;;;;;;;;;;;;;;;25.41;37.28;99569.63;5074210;28;20393;-67
2022/07/27 09:48:56;;;;;;;;;;;;;;;25.41;37.28;99569.63;5074016;28;19939;-67
2022/07/27 09:51:24;;;;;;;;;;;;;;;25.42;37.16;99564.97;5074309;28;20354;-67
2022/07/27 09:53:49;;;;;;;;;;;;;;;25.41;37.45;99572.38;5077976;28;19924;-67
2022/07/27 09:56:16;;;;;;;;;;;;;;;25.42;37.06;99581.38;5077770;28;20286;-67
2022/07/27 09:58:42;;;;;;;;;;;;;;;25.44;37.17;99579.13;5077401;28;19927;-67
2022/07/27 10:01:08;;;;;;;;;;;;;;;25.43;37.45;99578.34;5077226;28;19917;-67
2022/07/27 10:03:34;;;;;;;;;;;;;;;25.41;37.34;99575.09;5077507;28;19916;-66
2022/07/27 10:05:59;;;;;;;;;;;;;;;25.42;36.91;99576.75;5077621;28;19958;-67
2022/07/27 10:08:24;;;;;;;;;;;;;;;25.43;37.22;99578.34;5076408;28;19927;-67
2022/07/27 10:10:50;;;;;;;;;;;;;;;25.38;37.06;99572.19;5077241;28;19912;-67
2022/07/27 10:13:15;;;;;;;;;;;;;;;25.37;37.23;99582.31;5076857;28;20345;-67
2022/07/27 10:15:40;;;;;;;;;;;;;;;25.43;37.33;99578.34;5076348;28;19917;-67
2022/07/27 10:18:07;;;;;;;;;;;;;;;25.42;37.13;99581.38;5086349;28;20281;-67
2022/07/27 10:20:32;;;;;;;;;;;;;;;25.43;36.54;99583.81;5096669;28;19916;-67
2022/07/27 10:22:58;;;;;;;;;;;;;;;25.39;36.94;99579.25;5095181;28;19970;-67
2022/07/27 10:25:23;;;;;;;;;;;;;;;25.38;37.08;99583.13;5095735;28;19920;-67
2022/07/27 10:28:08;;;;;;;;;;;;;;;25.38;36.89;99586.66;5096060;28;20105;-67
2022/07/27 10:30:33;;;;;;;;;;;;;;;25.32;36.79;99582.44;5096610;28;19916;-68
2022/07/27 10:32:58;;;;;;;;;;;;;;;25.33;36.84;99584.03;5094876;28;19942;-67
2022/07/27 10:35:33;;;;;;;;;;;;;;;25.38;36.75;99588.59;5096370;28;20314;-67
2022/07/27 10:38:08;;;;;;;;;;;;;;;25.36;36.94;99590.81;5096036;28;20329;-67
2022/07/27 10:40:34;;;;;;;;;;;;;;;25.34;36.63;99579.38;5096155;28;20389;-67
2022/07/27 10:43:06;;;;;;;;;;;;;;;25.14;36.73;99578.66;5095795;28;19916;-67
2022/07/27 10:45:42;;;;;;;;;;;;;;;25.04;36.77;99581.59;5096484;28;19939;-67
2022/07/27 10:48:08;;;;;;;;;;;;;;;24.98;36.89;99583.63;5096094;28;19924;-68
2022/07/27 10:50:33;;;;;;;;;;;;;;;25.00;36.77;99592.31;5094552;28;20258;-68
2022/07/27 10:52:59;;;;;;;;;;;;;;;25.05;36.66;99583.22;5095589;28;20331;-68
2022/07/27 10:55:31;;;;;;;;;;;;;;;25.07;36.85;99581.78;5095685;28;19923;-68
2022/07/27 10:58:28;;;;;;;;;;;;;;;24.96;36.77;99587.75;5098135;28;19916;-68
2022/07/27 11:00:53;;;;;;;;;;;;;;;24.97;36.69;99570.25;5095812;28;20380;-68
2022/07/27 11:03:22;;;;;;;;;;;;;;;25.08;36.65;99588.09;5094902;28;19999;-67
2022/07/27 11:05:54;;;;;;;;;;;;;;;25.03;36.72;99594.44;5095169;28;19940;-67
2022/07/27 11:08:23;;;;;;;;;;;;;;;25.01;36.83;99595.84;5095404;28;19916;-68
2022/07/27 11:10:48;;;;;;;;;;;;;;;25.00;36.88;99591.50;5094136;28;20358;-67
2022/07/27 11:13:15;;;;;;;;;;;;;;;25.10;36.88;99597.59;5094897;28;19916;-67
2022/07/27 11:15:48;;;;;;;;;;;;;;;24.97;36.74;99600.31;5094239;28;19920;-68
2022/07/27 11:18:14;;;;;;;;;;;;;;;24.97;36.96;99608.50;5084246;28;19916;-68
2022/07/27 11:20:39;;;;;;;;;;;;;;;25.00;37.02;99607.91;5075165;28;19970;-68
2022/07/27 11:23:16;;;;;;;;;;;;;;;24.98;37.09;99607.41;5074883;28;20302;-68
2022/07/27 11:25:55;;;;;;;;;;;;;;;25.12;36.87;99617.22;5073251;28;20388;-68
2022/07/27 11:28:26;;;;;;;;;;;;;;;25.25;36.81;99615.66;5074997;28;19951;-68
2022/07/27 11:30:51;;;;;;;;;;;;;;;25.29;36.29;99613.09;5074658;28;19917;-68
2022/07/27 11:33:16;;;;;;;;;;;;;;;25.25;36.47;99612.91;5074521;28;19916;-68
2022/07/27 11:35:52;;;;;;;;;;;;;;;25.17;36.52;99626.47;5074732;28;19923;-68
2022/07/27 11:38:18;;;;;;;;;;;;;;;25.27;36.11;99618.09;5074352;28;19917;-68
2022/07/27 11:40:47;;;;;;;;;;;;;;;25.36;36.21;99618.19;5074824;28;19916;-68
2022/07/27 11:43:12;;;;;;;;;;;;;;;25.27;36.07;99618.88;5074330;28;19916;-68
2022/07/27 11:45:41;;;;;;;;;;;;;;;25.32;35.97;99623.44;5074228;28;20011;-68
2022/07/27 11:48:09;;;;;;;;;;;;;;;25.38;36.20;99619.47;5074474;28;20356;-68
2022/07/27 11:50:34;;;;;;;;;;;;;;;25.37;36.02;99625.25;5074113;28;19939;-68
2022/07/27 11:53:00;;;;;;;;;;;;;;;25.26;36.06;99628.19;5074430;28;19916;-69
2022/07/27 11:55:25;;;;;;;;;;;;;;;25.31;35.80;99630.03;5074173;28;19939;-68
2022/07/27 11:57:50;;;;;;;;;;;;;;;25.37;35.99;99630.72;5074698;28;19917;-68
2022/07/27 12:00:15;;;;;;;;;;;;;;;25.34;35.71;99628.63;5073297;28;19921;-68
2022/07/27 12:02:50;;;;;;;;;;;;;;;25.34;35.75;99634.09;5073811;28;19916;-68
2022/07/27 12:05:16;;;;;;;;;;;;;;;25.30;35.75;99629.22;5074477;28;20004;-68
2022/07/27 12:07:43;;;;;;;;;;;;;;;25.29;35.54;99622.13;5074457;28;19916;-68
2022/07/27 12:10:08;;;;;;;;;;;;;;;25.24;35.93;99619.44;5074635;28;19963;-68
2022/07/27 12:12:34;;;;;;;;;;;;;;;25.36;35.51;99621.72;5073880;28;19959;-67
2022/07/27 12:15:12;;;;;;;;;;;;;;;25.38;35.47;99622.22;5073195;28;19916;-68
2022/07/27 12:17:37;;;;;;;;;;;;;;;25.38;35.73;99629.63;5077810;28;19992;-68
2022/07/27 12:20:04;;;;;;;;;;;;;;;25.29;35.85;99629.53;5094399;28;19923;-68
2022/07/27 12:22:33;;;;;;;;;;;;;;;25.28;35.64;99623.25;5094316;28;20377;-68
2022/07/27 12:24:59;;;;;;;;;;;;;;;25.35;35.98;99630.22;5094269;28;19928;-68
2022/07/27 12:27:27;;;;;;;;;;;;;;;25.31;35.82;99624.53;5095081;28;19939;-68
2022/07/27 12:29:55;;;;;;;;;;;;;;;25.38;35.80;99629.63;5094335;28;19946;-67
2022/07/27 12:32:21;;;;;;;;;;;;;;;25.29;35.82;99633.06;5094256;28;19916;-67
2022/07/27 12:34:46;;;;;;;;;;;;;;;25.30;35.82;99631.94;5094032;28;19927;-67
2022/07/27 12:37:11;;;;;;;;;;;;;;;25.28;36.04;99631.44;5094603;28;20007;-67
2022/07/27 12:39:40;;;;;;;;;;;;;;;25.27;35.85;99623.53;5094052;28;20366;-67
2022/07/27 12:42:06;;;;;;;;;;;;;;;25.24;36.09;99627.66;5093738;28;19923;-67
2022/07/27 12:44:32;;;;;;;;;;;;;;;25.24;36.06;99629.59;5094111;28;19917;-68
2022/07/27 12:47:00;;;;;;;;;;;;;;;25.25;36.15;99634.78;5094271;28;19935;-68